sensor_id;sensor_type;location;lat;lon;timestamp;temperature;humidity
48752;DHT22;34544;48.836;9.174;2023-03-21T00:00:21;10.30;99.90
48752;DHT22;34544;48.836;9.174;2023-03-21T00:02:47;10.30;99.90
48752;DHT22;34544;48.836;9.174;2023-03-21T00:05:13;10.30;99.90
48752;DHT22;34544;48.836;9.174;2023-03-21T00:07:39;10.30;99.90
48752;DHT22;34544;48.836;9.174;2023-03-21T00:10:05;10.30;99.90
48752;DHT22;34544;48.836;9.174;2023-03-21T00:12:30;10.30;99.90
48752;DHT22;34544;48.836;9.174;2023-03-21T00:14:59;10.20;99.90
48752;DHT22;34544;48.836;9.174;2023-03-21T00:17:29;10.20;99.90
48752;DHT22;34544;48.836;9.174;2023-03-21T00:20:00;10.20;99.90
48752;DHT22;34544;48.836;9.174;2023-03-21T00:22:27;10.20;99.90
48752;DHT22;34544;48.836;9.174;2023-03-21T00:24:53;10.20;99.90
48752;DHT22;34544;48.836;9.174;2023-03-21T00:27:19;10.30;99.90
48752;DHT22;34544;48.836;9.174;2023-03-21T00:29:46;10.40;99.90
48752;DHT22;34544;48.836;9.174;2023-03-21T00:32:17;10.20;99.90
48752;DHT22;34544;48.836;9.174;2023-03-21T00:34:46;10.20;99.90
48752;DHT22;34544;48.836;9.174;2023-03-21T00:37:14;10.20;99.90
48752;DHT22;34544;48.836;9.174;2023-03-21T00:39:42;10.20;99.90
48752;DHT22;34544;48.836;9.174;2023-03-21T00:42:12;10.20;99.90
48752;DHT22;34544;48.836;9.174;2023-03-21T00:44:37;10.10;99.90
48752;DHT22;34544;48.836;9.174;2023-03-21T00:47:05;10.10;99.90
48752;DHT22;34544;48.836;9.174;2023-03-21T00:49:33;10.10;99.90
48752;DHT22;34544;48.836;9.174;2023-03-21T00:52:02;10.10;99.90
48752;DHT22;34544;48.836;9.174;2023-03-21T00:54:30;10.10;99.90
48752;DHT22;34544;48.836;9.174;2023-03-21T00:56:56;10.00;99.90
48752;DHT22;34544;48.836;9.174;2023-03-21T00:59:21;10.10;99.90
48752;DHT22;34544;48.836;9.174;2023-03-21T01:01:47;10.10;99.90
48752;DHT22;34544;48.836;9.174;2023-03-21T01:04:13;10.10;99.90
48752;DHT22;34544;48.836;9.174;2023-03-21T01:06:42;10.10;99.90
48752;DHT22;34544;48.836;9.174;2023-03-21T01:09:13;10.10;99.90
48752;DHT22;34544;48.836;9.174;2023-03-21T01:11:40;10.10;99.90
48752;DHT22;34544;48.836;9.174;2023-03-21T01:14:07;10.10;99.90
48752;DHT22;34544;48.836;9.174;2023-03-21T01:16:33;10.00;99.90
48752;DHT22;34544;48.836;9.174;2023-03-21T01:18:58;10.10;99.90
48752;DHT22;34544;48.836;9.174;2023-03-21T01:21:25;10.00;99.90
48752;DHT22;34544;48.836;9.174;2023-03-21T01:23:51;10.00;99.90
48752;DHT22;34544;48.836;9.174;2023-03-21T01:26:17;10.00;99.90
48752;DHT22;34544;48.836;9.174;2023-03-21T01:28:44;10.00;99.90
48752;DHT22;34544;48.836;9.174;2023-03-21T01:31:14;10.00;99.90
48752;DHT22;34544;48.836;9.174;2023-03-21T01:33:41;10.00;99.90
48752;DHT22;34544;48.836;9.174;2023-03-21T01:36:07;10.00;99.90
48752;DHT22;34544;48.836;9.174;2023-03-21T01:38:34;9.90;99.90
48752;DHT22;34544;48.836;9.174;2023-03-21T01:41:00;9.90;99.90
48752;DHT22;34544;48.836;9.174;2023-03-21T01:43:35;9.90;99.90
48752;DHT22;34544;48.836;9.174;2023-03-21T01:48:56;9.90;99.90
48752;DHT22;34544;48.836;9.174;2023-03-21T01:51:24;9.90;99.90
48752;DHT22;34544;48.836;9.174;2023-03-21T01:53:55;9.90;99.90
48752;DHT22;34544;48.836;9.174;2023-03-21T01:56:28;9.90;99.90
48752;DHT22;34544;48.836;9.174;2023-03-21T01:59:18;9.90;99.90
48752;DHT22;34544;48.836;9.174;2023-03-21T02:02:12;9.90;99.90
48752;DHT22;34544;48.836;9.174;2023-03-21T02:04:54;9.90;99.90
48752;DHT22;34544;48.836;9.174;2023-03-21T02:07:34;9.80;99.90
48752;DHT22;34544;48.836;9.174;2023-03-21T02:10:07;9.80;99.90
48752;DHT22;34544;48.836;9.174;2023-03-21T02:12:35;9.80;99.90
48752;DHT22;34544;48.836;9.174;2023-03-21T02:15:02;9.80;99.90
48752;DHT22;34544;48.836;9.174;2023-03-21T02:17:57;9.80;99.90
48752;DHT22;34544;48.836;9.174;2023-03-21T02:20:46;9.80;99.90
48752;DHT22;34544;48.836;9.174;2023-03-21T02:32:33;9.80;99.90
48752;DHT22;34544;48.836;9.174;2023-03-21T02:38:06;9.70;99.90
48752;DHT22;34544;48.836;9.174;2023-03-21T02:40:44;9.70;99.90
48752;DHT22;34544;48.836;9.174;2023-03-21T02:43:38;9.70;99.90
48752;DHT22;34544;48.836;9.174;2023-03-21T02:46:18;9.70;99.90
48752;DHT22;34544;48.836;9.174;2023-03-21T02:51:37;9.60;99.90
48752;DHT22;34544;48.836;9.174;2023-03-21T02:54:08;9.60;99.90
48752;DHT22;34544;48.836;9.174;2023-03-21T02:56:36;9.60;99.90
48752;DHT22;34544;48.836;9.174;2023-03-21T02:59:04;9.60;99.90
48752;DHT22;34544;48.836;9.174;2023-03-21T03:01:31;9.60;99.90
48752;DHT22;34544;48.836;9.174;2023-03-21T03:03:58;9.60;99.90
48752;DHT22;34544;48.836;9.174;2023-03-21T03:06:45;9.50;99.90
48752;DHT22;34544;48.836;9.174;2023-03-21T03:15:00;9.50;99.90
48752;DHT22;34544;48.836;9.174;2023-03-21T03:17:51;9.50;99.90
48752;DHT22;34544;48.836;9.174;2023-03-21T03:26:02;9.40;99.90
48752;DHT22;34544;48.836;9.174;2023-03-21T03:28:38;9.40;99.90
48752;DHT22;34544;48.836;9.174;2023-03-21T03:31:12;9.40;99.90
48752;DHT22;34544;48.836;9.174;2023-03-21T03:33:45;9.40;99.90
48752;DHT22;34544;48.836;9.174;2023-03-21T03:36:13;9.40;99.90
48752;DHT22;34544;48.836;9.174;2023-03-21T03:38:40;9.40;99.90
48752;DHT22;34544;48.836;9.174;2023-03-21T03:41:11;9.40;99.90
48752;DHT22;34544;48.836;9.174;2023-03-21T03:43:47;9.40;99.90
48752;DHT22;34544;48.836;9.174;2023-03-21T03:49:30;9.40;99.90
48752;DHT22;34544;48.836;9.174;2023-03-21T03:52:16;9.40;99.90
48752;DHT22;34544;48.836;9.174;2023-03-21T03:54:48;9.30;99.90
48752;DHT22;34544;48.836;9.174;2023-03-21T03:57:17;9.40;99.90
48752;DHT22;34544;48.836;9.174;2023-03-21T03:59:44;9.30;99.90
48752;DHT22;34544;48.836;9.174;2023-03-21T04:02:22;9.30;99.90
48752;DHT22;34544;48.836;9.174;2023-03-21T04:04:48;9.30;99.90
48752;DHT22;34544;48.836;9.174;2023-03-21T04:07:19;9.30;99.90
48752;DHT22;34544;48.836;9.174;2023-03-21T04:09:46;9.30;99.90
48752;DHT22;34544;48.836;9.174;2023-03-21T04:12:15;9.20;99.90
48752;DHT22;34544;48.836;9.174;2023-03-21T04:14:52;9.20;99.90
48752;DHT22;34544;48.836;9.174;2023-03-21T04:17:18;9.20;99.90
48752;DHT22;34544;48.836;9.174;2023-03-21T04:19:44;9.20;99.90
48752;DHT22;34544;48.836;9.174;2023-03-21T04:22:11;9.20;99.90
48752;DHT22;34544;48.836;9.174;2023-03-21T04:24:41;9.10;99.90
48752;DHT22;34544;48.836;9.174;2023-03-21T04:27:06;9.10;99.90
48752;DHT22;34544;48.836;9.174;2023-03-21T04:29:38;9.00;99.90
48752;DHT22;34544;48.836;9.174;2023-03-21T04:32:22;9.00;99.90
48752;DHT22;34544;48.836;9.174;2023-03-21T04:34:57;8.90;99.90
48752;DHT22;34544;48.836;9.174;2023-03-21T04:37:23;8.80;99.90
48752;DHT22;34544;48.836;9.174;2023-03-21T04:39:50;8.70;99.90
48752;DHT22;34544;48.836;9.174;2023-03-21T04:42:17;8.60;99.90
48752;DHT22;34544;48.836;9.174;2023-03-21T04:44:44;8.60;99.90
48752;DHT22;34544;48.836;9.174;2023-03-21T04:47:10;8.50;99.90
48752;DHT22;34544;48.836;9.174;2023-03-21T04:49:38;8.40;99.90
48752;DHT22;34544;48.836;9.174;2023-03-21T04:52:04;8.40;99.90
48752;DHT22;34544;48.836;9.174;2023-03-21T04:54:30;8.30;99.90
48752;DHT22;34544;48.836;9.174;2023-03-21T04:56:57;8.30;99.90
48752;DHT22;34544;48.836;9.174;2023-03-21T04:59:26;8.20;99.90
48752;DHT22;34544;48.836;9.174;2023-03-21T05:01:51;8.20;99.90
48752;DHT22;34544;48.836;9.174;2023-03-21T05:04:17;8.20;99.90
48752;DHT22;34544;48.836;9.174;2023-03-21T05:06:44;8.20;99.90
48752;DHT22;34544;48.836;9.174;2023-03-21T05:09:11;8.10;99.90
48752;DHT22;34544;48.836;9.174;2023-03-21T05:11:38;8.20;99.90
48752;DHT22;34544;48.836;9.174;2023-03-21T05:14:07;8.20;99.90
48752;DHT22;34544;48.836;9.174;2023-03-21T05:16:34;8.20;99.90
48752;DHT22;34544;48.836;9.174;2023-03-21T05:19:01;8.20;99.90
48752;DHT22;34544;48.836;9.174;2023-03-21T05:21:33;8.20;99.90
48752;DHT22;34544;48.836;9.174;2023-03-21T05:24:14;8.20;99.90
48752;DHT22;34544;48.836;9.174;2023-03-21T05:26:41;8.20;99.90
48752;DHT22;34544;48.836;9.174;2023-03-21T05:29:13;8.20;99.90
48752;DHT22;34544;48.836;9.174;2023-03-21T05:31:39;8.20;99.90
48752;DHT22;34544;48.836;9.174;2023-03-21T05:34:09;8.20;99.90
48752;DHT22;34544;48.836;9.174;2023-03-21T05:36:36;8.30;99.90
48752;DHT22;34544;48.836;9.174;2023-03-21T05:39:05;8.30;99.90
48752;DHT22;34544;48.836;9.174;2023-03-21T05:41:34;8.30;99.90
48752;DHT22;34544;48.836;9.174;2023-03-21T05:44:02;8.30;99.90
48752;DHT22;34544;48.836;9.174;2023-03-21T05:46:28;8.40;99.90
48752;DHT22;34544;48.836;9.174;2023-03-21T05:48:54;8.50;99.90
48752;DHT22;34544;48.836;9.174;2023-03-21T05:51:21;8.50;99.90
48752;DHT22;34544;48.836;9.174;2023-03-21T05:53:47;8.60;99.90
48752;DHT22;34544;48.836;9.174;2023-03-21T05:56:15;8.60;99.90
48752;DHT22;34544;48.836;9.174;2023-03-21T05:58:49;8.70;99.90
48752;DHT22;34544;48.836;9.174;2023-03-21T06:01:14;8.70;99.90
48752;DHT22;34544;48.836;9.174;2023-03-21T06:03:46;8.80;99.90
48752;DHT22;34544;48.836;9.174;2023-03-21T06:06:15;8.80;99.90
48752;DHT22;34544;48.836;9.174;2023-03-21T06:08:53;8.90;99.90
48752;DHT22;34544;48.836;9.174;2023-03-21T06:11:25;8.90;99.90
48752;DHT22;34544;48.836;9.174;2023-03-21T06:13:58;9.00;99.90
48752;DHT22;34544;48.836;9.174;2023-03-21T06:16:24;9.00;99.90
48752;DHT22;34544;48.836;9.174;2023-03-21T06:18:49;9.00;99.90
48752;DHT22;34544;48.836;9.174;2023-03-21T06:21:26;9.00;99.90
48752;DHT22;34544;48.836;9.174;2023-03-21T06:23:52;9.00;99.90
48752;DHT22;34544;48.836;9.174;2023-03-21T06:26:18;9.00;99.90
48752;DHT22;34544;48.836;9.174;2023-03-21T06:28:49;9.00;99.90
48752;DHT22;34544;48.836;9.174;2023-03-21T06:31:15;9.10;99.90
48752;DHT22;34544;48.836;9.174;2023-03-21T06:33:42;9.10;99.90
48752;DHT22;34544;48.836;9.174;2023-03-21T06:36:08;9.10;99.90
48752;DHT22;34544;48.836;9.174;2023-03-21T06:38:34;9.10;99.90
48752;DHT22;34544;48.836;9.174;2023-03-21T06:41:04;9.10;99.90
48752;DHT22;34544;48.836;9.174;2023-03-21T06:43:35;9.10;99.90
48752;DHT22;34544;48.836;9.174;2023-03-21T06:46:02;9.10;99.90
48752;DHT22;34544;48.836;9.174;2023-03-21T06:48:28;9.10;99.90
48752;DHT22;34544;48.836;9.174;2023-03-21T06:50:54;9.10;99.90
48752;DHT22;34544;48.836;9.174;2023-03-21T06:53:23;9.20;99.90
48752;DHT22;34544;48.836;9.174;2023-03-21T06:56:29;9.20;99.90
48752;DHT22;34544;48.836;9.174;2023-03-21T06:58:55;9.30;99.90
48752;DHT22;34544;48.836;9.174;2023-03-21T07:01:44;9.30;99.90
48752;DHT22;34544;48.836;9.174;2023-03-21T07:04:10;9.40;99.90
48752;DHT22;34544;48.836;9.174;2023-03-21T07:06:36;9.50;99.90
48752;DHT22;34544;48.836;9.174;2023-03-21T07:09:03;9.60;99.90
48752;DHT22;34544;48.836;9.174;2023-03-21T07:11:31;9.70;99.90
48752;DHT22;34544;48.836;9.174;2023-03-21T07:13:57;9.80;99.90
48752;DHT22;34544;48.836;9.174;2023-03-21T07:16:23;10.00;99.90
48752;DHT22;34544;48.836;9.174;2023-03-21T07:18:50;10.10;99.90
48752;DHT22;34544;48.836;9.174;2023-03-21T07:21:17;10.30;99.90
48752;DHT22;34544;48.836;9.174;2023-03-21T07:23:43;10.40;99.90
48752;DHT22;34544;48.836;9.174;2023-03-21T07:26:09;10.60;99.90
48752;DHT22;34544;48.836;9.174;2023-03-21T07:28:35;10.80;99.90
48752;DHT22;34544;48.836;9.174;2023-03-21T07:31:03;11.10;99.90
48752;DHT22;34544;48.836;9.174;2023-03-21T07:33:30;11.50;99.90
48752;DHT22;34544;48.836;9.174;2023-03-21T07:35:59;11.80;99.90
48752;DHT22;34544;48.836;9.174;2023-03-21T07:38:25;12.10;99.90
48752;DHT22;34544;48.836;9.174;2023-03-21T07:40:51;12.40;99.90
48752;DHT22;34544;48.836;9.174;2023-03-21T07:43:18;12.70;99.90
48752;DHT22;34544;48.836;9.174;2023-03-21T07:45:44;12.90;99.90
48752;DHT22;34544;48.836;9.174;2023-03-21T07:48:11;13.20;99.90
48752;DHT22;34544;48.836;9.174;2023-03-21T07:50:42;13.40;99.90
48752;DHT22;34544;48.836;9.174;2023-03-21T07:53:08;13.60;99.90
48752;DHT22;34544;48.836;9.174;2023-03-21T07:55:33;13.80;99.90
48752;DHT22;34544;48.836;9.174;2023-03-21T07:58:03;14.10;99.90
48752;DHT22;34544;48.836;9.174;2023-03-21T08:00:29;14.30;99.90
48752;DHT22;34544;48.836;9.174;2023-03-21T08:02:56;14.40;99.90
48752;DHT22;34544;48.836;9.174;2023-03-21T08:05:33;14.50;99.90
48752;DHT22;34544;48.836;9.174;2023-03-21T08:07:59;14.60;99.90
48752;DHT22;34544;48.836;9.174;2023-03-21T08:10:25;14.70;99.90
48752;DHT22;34544;48.836;9.174;2023-03-21T08:12:51;14.80;99.90
48752;DHT22;34544;48.836;9.174;2023-03-21T08:15:17;15.10;99.90
48752;DHT22;34544;48.836;9.174;2023-03-21T08:17:42;15.40;99.90
48752;DHT22;34544;48.836;9.174;2023-03-21T08:20:12;15.70;99.90
48752;DHT22;34544;48.836;9.174;2023-03-21T08:22:41;16.10;99.90
48752;DHT22;34544;48.836;9.174;2023-03-21T08:27:34;16.80;99.90
48752;DHT22;34544;48.836;9.174;2023-03-21T08:30:00;16.90;99.90
48752;DHT22;34544;48.836;9.174;2023-03-21T08:32:27;17.10;99.90
48752;DHT22;34544;48.836;9.174;2023-03-21T08:34:59;17.20;99.90
48752;DHT22;34544;48.836;9.174;2023-03-21T08:37:26;17.30;99.90
48752;DHT22;34544;48.836;9.174;2023-03-21T08:39:52;17.50;99.90
48752;DHT22;34544;48.836;9.174;2023-03-21T08:42:18;17.80;99.90
48752;DHT22;34544;48.836;9.174;2023-03-21T08:44:44;18.10;99.90
48752;DHT22;34544;48.836;9.174;2023-03-21T08:47:11;18.30;99.90
48752;DHT22;34544;48.836;9.174;2023-03-21T08:49:37;18.60;99.90
48752;DHT22;34544;48.836;9.174;2023-03-21T08:52:03;18.70;99.90
48752;DHT22;34544;48.836;9.174;2023-03-21T08:54:29;18.80;99.90
48752;DHT22;34544;48.836;9.174;2023-03-21T08:56:54;19.00;99.90
48752;DHT22;34544;48.836;9.174;2023-03-21T08:59:20;19.10;99.90
48752;DHT22;34544;48.836;9.174;2023-03-21T09:01:46;19.10;99.90
48752;DHT22;34544;48.836;9.174;2023-03-21T09:04:12;19.20;99.90
48752;DHT22;34544;48.836;9.174;2023-03-21T09:06:38;19.40;99.90
48752;DHT22;34544;48.836;9.174;2023-03-21T09:09:06;19.80;99.90
48752;DHT22;34544;48.836;9.174;2023-03-21T09:11:33;19.90;99.60
48752;DHT22;34544;48.836;9.174;2023-03-21T09:13:59;20.00;98.80
48752;DHT22;34544;48.836;9.174;2023-03-21T09:16:25;20.10;98.20
48752;DHT22;34544;48.836;9.174;2023-03-21T09:18:50;20.10;98.00
48752;DHT22;34544;48.836;9.174;2023-03-21T09:21:20;20.00;98.30
48752;DHT22;34544;48.836;9.174;2023-03-21T09:23:48;19.80;98.50
48752;DHT22;34544;48.836;9.174;2023-03-21T09:26:16;19.50;98.20
48752;DHT22;34544;48.836;9.174;2023-03-21T09:28:42;19.20;98.40
48752;DHT22;34544;48.836;9.174;2023-03-21T09:31:08;18.80;98.60
48752;DHT22;34544;48.836;9.174;2023-03-21T09:33:38;18.60;98.80
48752;DHT22;34544;48.836;9.174;2023-03-21T09:36:06;18.80;99.90
48752;DHT22;34544;48.836;9.174;2023-03-21T09:38:39;19.10;98.80
48752;DHT22;34544;48.836;9.174;2023-03-21T09:49:37;21.00;99.90
48752;DHT22;34544;48.836;9.174;2023-03-21T09:52:16;20.80;97.80
48752;DHT22;34544;48.836;9.174;2023-03-21T09:57:23;21.50;99.90
48752;DHT22;34544;48.836;9.174;2023-03-21T09:59:51;21.60;99.90
48752;DHT22;34544;48.836;9.174;2023-03-21T10:05:16;22.00;93.60
48752;DHT22;34544;48.836;9.174;2023-03-21T10:07:52;21.90;92.70
48752;DHT22;34544;48.836;9.174;2023-03-21T10:10:31;21.70;92.60
48752;DHT22;34544;48.836;9.174;2023-03-21T10:12:59;21.20;92.40
48752;DHT22;34544;48.836;9.174;2023-03-21T10:15:25;20.90;93.30
48752;DHT22;34544;48.836;9.174;2023-03-21T10:18:01;20.60;92.50
48752;DHT22;34544;48.836;9.174;2023-03-21T10:20:32;20.50;94.10
48752;DHT22;34544;48.836;9.174;2023-03-21T10:23:00;20.60;92.50
48752;DHT22;34544;48.836;9.174;2023-03-21T10:25:31;20.60;92.40
48752;DHT22;34544;48.836;9.174;2023-03-21T10:27:58;20.80;92.30
48752;DHT22;34544;48.836;9.174;2023-03-21T10:30:44;20.90;92.00
48752;DHT22;34544;48.836;9.174;2023-03-21T10:33:14;21.20;91.30
48752;DHT22;34544;48.836;9.174;2023-03-21T10:35:44;21.40;92.20
48752;DHT22;34544;48.836;9.174;2023-03-21T10:38:19;21.80;93.10
48752;DHT22;34544;48.836;9.174;2023-03-21T10:40:45;22.10;92.20
48752;DHT22;34544;48.836;9.174;2023-03-21T10:45:53;22.40;91.10
48752;DHT22;34544;48.836;9.174;2023-03-21T10:48:20;22.70;91.90
48752;DHT22;34544;48.836;9.174;2023-03-21T10:50:48;22.80;90.90
48752;DHT22;34544;48.836;9.174;2023-03-21T10:53:28;22.90;91.30
48752;DHT22;34544;48.836;9.174;2023-03-21T10:55:58;23.20;90.40
48752;DHT22;34544;48.836;9.174;2023-03-21T10:58:26;23.30;90.60
48752;DHT22;34544;48.836;9.174;2023-03-21T11:00:55;23.40;88.90
48752;DHT22;34544;48.836;9.174;2023-03-21T11:03:39;23.40;89.10
48752;DHT22;34544;48.836;9.174;2023-03-21T11:06:21;23.30;87.80
48752;DHT22;34544;48.836;9.174;2023-03-21T11:08:55;23.00;90.20
48752;DHT22;34544;48.836;9.174;2023-03-21T11:11:26;22.80;91.60
48752;DHT22;34544;48.836;9.174;2023-03-21T11:13:58;22.60;91.20
48752;DHT22;34544;48.836;9.174;2023-03-21T11:16:43;22.20;91.90
48752;DHT22;34544;48.836;9.174;2023-03-21T11:19:18;22.00;91.50
48752;DHT22;34544;48.836;9.174;2023-03-21T11:21:44;21.80;91.50
48752;DHT22;34544;48.836;9.174;2023-03-21T11:24:15;21.80;92.10
48752;DHT22;34544;48.836;9.174;2023-03-21T11:26:43;21.60;92.30
48752;DHT22;34544;48.836;9.174;2023-03-21T11:29:26;21.50;92.60
48752;DHT22;34544;48.836;9.174;2023-03-21T11:31:57;21.30;92.30
48752;DHT22;34544;48.836;9.174;2023-03-21T11:34:31;21.20;92.70
48752;DHT22;34544;48.836;9.174;2023-03-21T11:36:59;21.00;92.90
48752;DHT22;34544;48.836;9.174;2023-03-21T11:39:30;20.80;93.10
48752;DHT22;34544;48.836;9.174;2023-03-21T11:41:56;20.70;93.30
48752;DHT22;34544;48.836;9.174;2023-03-21T11:44:32;20.50;93.80
48752;DHT22;34544;48.836;9.174;2023-03-21T11:46:58;20.40;93.20
48752;DHT22;34544;48.836;9.174;2023-03-21T11:49:25;20.10;93.30
48752;DHT22;34544;48.836;9.174;2023-03-21T11:54:39;19.70;94.10
48752;DHT22;34544;48.836;9.174;2023-03-21T11:58:04;19.60;94.70
48752;DHT22;34544;48.836;9.174;2023-03-21T12:03:46;19.40;94.20
48752;DHT22;34544;48.836;9.174;2023-03-21T12:06:21;19.40;94.30
48752;DHT22;34544;48.836;9.174;2023-03-21T12:11:38;19.00;95.50
48752;DHT22;34544;48.836;9.174;2023-03-21T12:22:21;19.00;99.90
48752;DHT22;34544;48.836;9.174;2023-03-21T12:25:08;19.00;99.90
48752;DHT22;34544;48.836;9.174;2023-03-21T12:39:03;18.80;95.10
48752;DHT22;34544;48.836;9.174;2023-03-21T12:44:38;18.80;94.90
48752;DHT22;34544;48.836;9.174;2023-03-21T12:47:12;18.80;98.10
48752;DHT22;34544;48.836;9.174;2023-03-21T12:49:42;18.60;94.50
48752;DHT22;34544;48.836;9.174;2023-03-21T12:52:15;18.60;95.90
48752;DHT22;34544;48.836;9.174;2023-03-21T12:54:45;18.70;94.80
48752;DHT22;34544;48.836;9.174;2023-03-21T12:57:27;18.70;95.00
48752;DHT22;34544;48.836;9.174;2023-03-21T12:59:59;18.80;95.20
48752;DHT22;34544;48.836;9.174;2023-03-21T13:05:17;19.30;94.80
48752;DHT22;34544;48.836;9.174;2023-03-21T13:07:49;19.70;96.10
48752;DHT22;34544;48.836;9.174;2023-03-21T13:10:19;20.00;97.90
48752;DHT22;34544;48.836;9.174;2023-03-21T13:13:18;20.40;95.80
48752;DHT22;34544;48.836;9.174;2023-03-21T13:15:58;20.50;92.90
48752;DHT22;34544;48.836;9.174;2023-03-21T13:20:59;20.70;92.80
48752;DHT22;34544;48.836;9.174;2023-03-21T13:23:36;20.60;92.70
48752;DHT22;34544;48.836;9.174;2023-03-21T13:26:06;20.50;92.80
48752;DHT22;34544;48.836;9.174;2023-03-21T13:28:34;20.30;93.50
48752;DHT22;34544;48.836;9.174;2023-03-21T13:33:49;20.00;93.20
48752;DHT22;34544;48.836;9.174;2023-03-21T13:36:27;19.80;93.00
48752;DHT22;34544;48.836;9.174;2023-03-21T13:38:58;19.80;92.70
48752;DHT22;34544;48.836;9.174;2023-03-21T13:51:52;19.00;94.20
48752;DHT22;34544;48.836;9.174;2023-03-21T13:56:53;18.90;99.90
48752;DHT22;34544;48.836;9.174;2023-03-21T14:04:41;18.40;95.10
48752;DHT22;34544;48.836;9.174;2023-03-21T14:07:11;18.40;95.00
48752;DHT22;34544;48.836;9.174;2023-03-21T14:09:46;18.30;95.20
48752;DHT22;34544;48.836;9.174;2023-03-21T14:12:16;18.30;94.90
48752;DHT22;34544;48.836;9.174;2023-03-21T14:14:46;18.20;95.50
48752;DHT22;34544;48.836;9.174;2023-03-21T14:17:21;18.20;95.10
48752;DHT22;34544;48.836;9.174;2023-03-21T14:19:54;18.20;95.80
48752;DHT22;34544;48.836;9.174;2023-03-21T14:22:21;18.20;95.90
48752;DHT22;34544;48.836;9.174;2023-03-21T14:25:11;18.30;95.60
48752;DHT22;34544;48.836;9.174;2023-03-21T14:27:52;18.50;95.20
48752;DHT22;34544;48.836;9.174;2023-03-21T14:30:25;18.60;95.10
48752;DHT22;34544;48.836;9.174;2023-03-21T14:32:58;18.70;95.00
48752;DHT22;34544;48.836;9.174;2023-03-21T14:35:29;18.80;95.30
48752;DHT22;34544;48.836;9.174;2023-03-21T14:38:04;18.90;95.40
48752;DHT22;34544;48.836;9.174;2023-03-21T14:40:30;18.80;94.40
48752;DHT22;34544;48.836;9.174;2023-03-21T14:42:55;18.80;95.00
48752;DHT22;34544;48.836;9.174;2023-03-21T14:45:27;18.80;94.80
48752;DHT22;34544;48.836;9.174;2023-03-21T14:48:09;18.90;95.20
48752;DHT22;34544;48.836;9.174;2023-03-21T14:50:54;19.00;94.80
48752;DHT22;34544;48.836;9.174;2023-03-21T14:55:55;19.00;95.60
48752;DHT22;34544;48.836;9.174;2023-03-21T14:58:21;18.90;94.50
48752;DHT22;34544;48.836;9.174;2023-03-21T15:00:52;18.90;94.90
48752;DHT22;34544;48.836;9.174;2023-03-21T15:03:21;18.80;95.70
48752;DHT22;34544;48.836;9.174;2023-03-21T15:05:48;18.80;96.40
48752;DHT22;34544;48.836;9.174;2023-03-21T15:08:19;18.80;96.60
48752;DHT22;34544;48.836;9.174;2023-03-21T15:11:03;18.70;96.30
48752;DHT22;34544;48.836;9.174;2023-03-21T15:13:44;18.50;96.80
48752;DHT22;34544;48.836;9.174;2023-03-21T15:16:11;18.30;96.70
48752;DHT22;34544;48.836;9.174;2023-03-21T15:18:39;18.10;97.00
48752;DHT22;34544;48.836;9.174;2023-03-21T15:21:50;18.10;97.50
48752;DHT22;34544;48.836;9.174;2023-03-21T15:24:31;18.10;97.50
48752;DHT22;34544;48.836;9.174;2023-03-21T15:27:06;18.20;97.40
48752;DHT22;34544;48.836;9.174;2023-03-21T15:29:33;18.10;97.60
48752;DHT22;34544;48.836;9.174;2023-03-21T15:32:06;18.10;98.00
48752;DHT22;34544;48.836;9.174;2023-03-21T15:34:36;18.10;98.00
48752;DHT22;34544;48.836;9.174;2023-03-21T15:37:08;18.10;98.20
48752;DHT22;34544;48.836;9.174;2023-03-21T15:39:38;18.10;98.30
48752;DHT22;34544;48.836;9.174;2023-03-21T15:44:56;18.00;98.80
48752;DHT22;34544;48.836;9.174;2023-03-21T15:47:51;18.00;98.90
48752;DHT22;34544;48.836;9.174;2023-03-21T15:52:50;17.60;98.40
48752;DHT22;34544;48.836;9.174;2023-03-21T15:55:43;17.50;98.70
48752;DHT22;34544;48.836;9.174;2023-03-21T15:58:24;17.30;99.00
48752;DHT22;34544;48.836;9.174;2023-03-21T16:00:53;17.00;99.30
48752;DHT22;34544;48.836;9.174;2023-03-21T16:03:27;16.70;99.70
48752;DHT22;34544;48.836;9.174;2023-03-21T16:08:27;16.40;99.90
48752;DHT22;34544;48.836;9.174;2023-03-21T16:11:05;16.40;99.90
48752;DHT22;34544;48.836;9.174;2023-03-21T16:15:57;16.20;99.90
48752;DHT22;34544;48.836;9.174;2023-03-21T16:18:23;16.20;99.90
48752;DHT22;34544;48.836;9.174;2023-03-21T16:20:48;16.10;99.90
48752;DHT22;34544;48.836;9.174;2023-03-21T16:23:14;16.10;99.90
48752;DHT22;34544;48.836;9.174;2023-03-21T16:25:41;16.00;99.90
48752;DHT22;34544;48.836;9.174;2023-03-21T16:30:41;16.00;99.90
48752;DHT22;34544;48.836;9.174;2023-03-21T16:35:40;15.60;99.90
48752;DHT22;34544;48.836;9.174;2023-03-21T16:38:08;15.70;99.90
48752;DHT22;34544;48.836;9.174;2023-03-21T16:40:37;15.60;99.90
48752;DHT22;34544;48.836;9.174;2023-03-21T16:43:03;15.60;99.90
48752;DHT22;34544;48.836;9.174;2023-03-21T16:45:29;15.50;99.90
48752;DHT22;34544;48.836;9.174;2023-03-21T16:47:55;15.30;99.90
48752;DHT22;34544;48.836;9.174;2023-03-21T16:52:57;15.30;99.90
48752;DHT22;34544;48.836;9.174;2023-03-21T16:55:24;15.20;99.90
48752;DHT22;34544;48.836;9.174;2023-03-21T16:57:51;15.20;99.90
48752;DHT22;34544;48.836;9.174;2023-03-21T17:00:19;15.10;99.90
48752;DHT22;34544;48.836;9.174;2023-03-21T17:02:48;15.10;99.90
48752;DHT22;34544;48.836;9.174;2023-03-21T17:05:15;15.10;99.90
48752;DHT22;34544;48.836;9.174;2023-03-21T17:07:41;15.00;99.90
48752;DHT22;34544;48.836;9.174;2023-03-21T17:10:17;15.00;99.90
48752;DHT22;34544;48.836;9.174;2023-03-21T17:12:44;14.90;99.90
48752;DHT22;34544;48.836;9.174;2023-03-21T17:15:10;14.90;99.90
48752;DHT22;34544;48.836;9.174;2023-03-21T17:17:36;14.80;99.90
48752;DHT22;34544;48.836;9.174;2023-03-21T17:20:52;14.80;99.90
48752;DHT22;34544;48.836;9.174;2023-03-21T17:22:59;14.70;99.90
48752;DHT22;34544;48.836;9.174;2023-03-21T17:25:25;14.70;99.90
48752;DHT22;34544;48.836;9.174;2023-03-21T17:27:51;14.60;99.90
48752;DHT22;34544;48.836;9.174;2023-03-21T17:32:47;14.50;99.90
48752;DHT22;34544;48.836;9.174;2023-03-21T17:35:13;14.50;99.90
48752;DHT22;34544;48.836;9.174;2023-03-21T17:37:39;14.50;99.90
48752;DHT22;34544;48.836;9.174;2023-03-21T17:40:06;14.40;99.90
48752;DHT22;34544;48.836;9.174;2023-03-21T17:42:32;14.30;99.90
48752;DHT22;34544;48.836;9.174;2023-03-21T17:44:58;14.30;99.90
48752;DHT22;34544;48.836;9.174;2023-03-21T17:47:23;14.30;99.90
48752;DHT22;34544;48.836;9.174;2023-03-21T17:49:50;14.20;99.90
48752;DHT22;34544;48.836;9.174;2023-03-21T17:52:16;14.10;99.90
48752;DHT22;34544;48.836;9.174;2023-03-21T17:54:42;14.10;99.90
48752;DHT22;34544;48.836;9.174;2023-03-21T17:57:11;14.10;99.90
48752;DHT22;34544;48.836;9.174;2023-03-21T17:59:37;14.00;99.90
48752;DHT22;34544;48.836;9.174;2023-03-21T18:02:02;14.00;99.90
48752;DHT22;34544;48.836;9.174;2023-03-21T18:04:28;14.00;99.90
48752;DHT22;34544;48.836;9.174;2023-03-21T18:06:54;14.00;99.90